Terminal Aerodrome Forecast
Issued by NWS

Home | Current Version | Previous Version | Text Only | Print | Product List | Glossary On
Versions: 1 2 3 4 5 6 7 8 9 10 11 12 13
682
FTUS42 TJSJ 212338
TAFJBQ
TAF
TJBQ 212338Z 2200/2224 06004KT P6SM VCSH SCT028 SCT070
     FM221500 07008G16KT P6SM SCT026 SCT070
     FM222300 09008KT P6SM SCT025
      AMD NOT SKED 2202/2211=

USA.gov is the U.S. government's official web portal to all federal, state and local government web resources and services.